Hodges, Alabama
Current Conditions -  °F | °C
As of 4:56 AM on Sunday 21 Dec 2014 (Local Time) from K1M4 Reporting Station
Haze Haze  
Wind Chill: 27°   Ceiling: Unl
Heat Index: 27°   Visibility: 6mi
Dew Point: 27°   Wind: 0mph
Humidity: 100%   Direction: NA
Pressure: 30.2"   Gusts: NA
Location:  34.33°N, 87.93°W
Report Text: K1M4 211056Z AUTO 00000KT 6SM BR CLR M03/M03 A3020 RMK AO2 T10271027 SLP235 $
Loading
Personal Weather Stations






























Interactive Weather Map New forecast layout! Learn more

10-Day Weather Forecast

Advertisements
Track Severe Weather on mobile